sensor_id;sensor_type;location;lat;lon;timestamp;P1;durP1;ratioP1;P2;durP2;ratioP2
49458;SDS011;35354;51.296;16.924;2022-09-01T00:01:49;5.68;;;4.60;;
49458;SDS011;35354;51.296;16.924;2022-09-01T00:04:17;8.15;;;3.90;;
49458;SDS011;35354;51.296;16.924;2022-09-01T00:06:45;8.52;;;4.00;;
49458;SDS011;35354;51.296;16.924;2022-09-01T00:09:12;5.45;;;4.10;;
49458;SDS011;35354;51.296;16.924;2022-09-01T00:11:41;7.13;;;4.82;;
49458;SDS011;35354;51.296;16.924;2022-09-01T00:14:09;8.95;;;4.20;;
49458;SDS011;35354;51.296;16.924;2022-09-01T00:16:37;9.18;;;4.43;;
49458;SDS011;35354;51.296;16.924;2022-09-01T00:19:03;6.05;;;4.15;;
49458;SDS011;35354;51.296;16.924;2022-09-01T00:21:31;5.80;;;3.92;;
49458;SDS011;35354;51.296;16.924;2022-09-01T00:23:59;5.78;;;3.97;;
49458;SDS011;35354;51.296;16.924;2022-09-01T00:26:24;7.28;;;4.32;;
49458;SDS011;35354;51.296;16.924;2022-09-01T00:28:50;6.28;;;4.32;;
49458;SDS011;35354;51.296;16.924;2022-09-01T00:31:15;9.77;;;4.50;;
49458;SDS011;35354;51.296;16.924;2022-09-01T00:33:43;7.32;;;4.30;;
49458;SDS011;35354;51.296;16.924;2022-09-01T00:36:09;10.13;;;4.30;;
49458;SDS011;35354;51.296;16.924;2022-09-01T00:38:35;10.30;;;4.25;;
49458;SDS011;35354;51.296;16.924;2022-09-01T00:41:00;5.93;;;4.07;;
49458;SDS011;35354;51.296;16.924;2022-09-01T00:46:10;8.30;;;4.10;;
49458;SDS011;35354;51.296;16.924;2022-09-01T00:48:40;6.90;;;4.05;;
49458;SDS011;35354;51.296;16.924;2022-09-01T00:51:07;8.18;;;3.92;;
49458;SDS011;35354;51.296;16.924;2022-09-01T00:53:34;8.70;;;4.32;;
49458;SDS011;35354;51.296;16.924;2022-09-01T00:56:03;7.50;;;4.55;;
49458;SDS011;35354;51.296;16.924;2022-09-01T00:58:29;8.15;;;3.92;;
49458;SDS011;35354;51.296;16.924;2022-09-01T01:00:56;5.90;;;4.03;;
49458;SDS011;35354;51.296;16.924;2022-09-01T01:03:21;6.35;;;4.25;;
49458;SDS011;35354;51.296;16.924;2022-09-01T01:05:52;10.65;;;4.82;;
49458;SDS011;35354;51.296;16.924;2022-09-01T01:08:24;7.32;;;4.20;;
49458;SDS011;35354;51.296;16.924;2022-09-01T01:10:59;7.22;;;4.38;;
49458;SDS011;35354;51.296;16.924;2022-09-01T01:13:26;6.15;;;4.57;;
49458;SDS011;35354;51.296;16.924;2022-09-01T01:15:52;8.88;;;4.32;;
49458;SDS011;35354;51.296;16.924;2022-09-01T01:18:18;5.88;;;3.97;;
49458;SDS011;35354;51.296;16.924;2022-09-01T01:20:43;6.35;;;4.00;;
49458;SDS011;35354;51.296;16.924;2022-09-01T01:23:37;9.70;;;4.28;;
49458;SDS011;35354;51.296;16.924;2022-09-01T01:26:09;6.95;;;4.03;;
49458;SDS011;35354;51.296;16.924;2022-09-01T01:28:38;9.82;;;4.90;;
49458;SDS011;35354;51.296;16.924;2022-09-01T01:31:13;6.17;;;4.40;;
49458;SDS011;35354;51.296;16.924;2022-09-01T01:33:43;7.85;;;4.93;;
49458;SDS011;35354;51.296;16.924;2022-09-01T01:36:22;7.65;;;4.38;;
49458;SDS011;35354;51.296;16.924;2022-09-01T01:39:04;6.55;;;4.45;;
49458;SDS011;35354;51.296;16.924;2022-09-01T01:41:33;9.48;;;5.03;;
49458;SDS011;35354;51.296;16.924;2022-09-01T01:44:00;5.05;;;4.05;;
49458;SDS011;35354;51.296;16.924;2022-09-01T01:46:28;5.90;;;4.60;;
49458;SDS011;35354;51.296;16.924;2022-09-01T01:48:55;9.60;;;4.80;;
49458;SDS011;35354;51.296;16.924;2022-09-01T01:51:21;6.57;;;4.53;;
49458;SDS011;35354;51.296;16.924;2022-09-01T01:53:51;8.10;;;4.60;;
49458;SDS011;35354;51.296;16.924;2022-09-01T01:56:18;9.52;;;4.85;;
49458;SDS011;35354;51.296;16.924;2022-09-01T01:58:44;8.20;;;4.90;;
49458;SDS011;35354;51.296;16.924;2022-09-01T02:01:09;5.68;;;4.70;;
49458;SDS011;35354;51.296;16.924;2022-09-01T02:03:36;7.18;;;4.13;;
49458;SDS011;35354;51.296;16.924;2022-09-01T02:06:04;8.80;;;4.90;;
49458;SDS011;35354;51.296;16.924;2022-09-01T02:08:32;7.53;;;4.70;;
49458;SDS011;35354;51.296;16.924;2022-09-01T02:11:00;9.07;;;5.15;;
49458;SDS011;35354;51.296;16.924;2022-09-01T02:13:25;7.50;;;4.35;;
49458;SDS011;35354;51.296;16.924;2022-09-01T02:15:55;5.38;;;4.07;;
49458;SDS011;35354;51.296;16.924;2022-09-01T02:18:24;6.57;;;4.38;;
49458;SDS011;35354;51.296;16.924;2022-09-01T02:20:58;6.50;;;4.72;;
49458;SDS011;35354;51.296;16.924;2022-09-01T02:23:24;8.23;;;4.53;;
49458;SDS011;35354;51.296;16.924;2022-09-01T02:25:51;8.90;;;4.40;;
49458;SDS011;35354;51.296;16.924;2022-09-01T02:28:19;6.70;;;4.40;;
49458;SDS011;35354;51.296;16.924;2022-09-01T02:30:47;8.02;;;3.90;;
49458;SDS011;35354;51.296;16.924;2022-09-01T02:33:19;6.97;;;4.18;;
49458;SDS011;35354;51.296;16.924;2022-09-01T02:35:47;5.72;;;4.50;;
49458;SDS011;35354;51.296;16.924;2022-09-01T02:38:14;5.68;;;4.60;;
49458;SDS011;35354;51.296;16.924;2022-09-01T02:40:41;7.47;;;5.20;;
49458;SDS011;35354;51.296;16.924;2022-09-01T02:43:11;8.98;;;4.57;;
49458;SDS011;35354;51.296;16.924;2022-09-01T02:45:39;5.90;;;4.22;;
49458;SDS011;35354;51.296;16.924;2022-09-01T02:48:06;5.70;;;4.03;;
49458;SDS011;35354;51.296;16.924;2022-09-01T02:50:33;9.45;;;4.45;;
49458;SDS011;35354;51.296;16.924;2022-09-01T02:52:59;5.53;;;3.92;;
49458;SDS011;35354;51.296;16.924;2022-09-01T02:55:25;5.82;;;4.53;;
49458;SDS011;35354;51.296;16.924;2022-09-01T02:57:50;8.48;;;4.00;;
49458;SDS011;35354;51.296;16.924;2022-09-01T03:00:21;8.07;;;4.20;;
49458;SDS011;35354;51.296;16.924;2022-09-01T03:02:55;6.82;;;4.07;;
49458;SDS011;35354;51.296;16.924;2022-09-01T03:05:23;7.15;;;3.92;;
49458;SDS011;35354;51.296;16.924;2022-09-01T03:07:53;9.45;;;4.53;;
49458;SDS011;35354;51.296;16.924;2022-09-01T03:10:26;5.22;;;3.70;;
49458;SDS011;35354;51.296;16.924;2022-09-01T03:13:00;6.93;;;3.88;;
49458;SDS011;35354;51.296;16.924;2022-09-01T03:15:27;5.38;;;4.03;;
49458;SDS011;35354;51.296;16.924;2022-09-01T03:17:53;7.20;;;4.20;;
49458;SDS011;35354;51.296;16.924;2022-09-01T03:20:18;7.38;;;3.85;;
49458;SDS011;35354;51.296;16.924;2022-09-01T03:22:46;6.70;;;4.63;;
49458;SDS011;35354;51.296;16.924;2022-09-01T03:25:16;5.40;;;3.90;;
49458;SDS011;35354;51.296;16.924;2022-09-01T03:27:42;7.78;;;4.30;;
49458;SDS011;35354;51.296;16.924;2022-09-01T03:30:08;5.93;;;4.38;;
49458;SDS011;35354;51.296;16.924;2022-09-01T03:32:34;7.53;;;4.60;;
49458;SDS011;35354;51.296;16.924;2022-09-01T03:34:59;6.45;;;4.53;;
49458;SDS011;35354;51.296;16.924;2022-09-01T03:37:25;7.30;;;5.43;;
49458;SDS011;35354;51.296;16.924;2022-09-01T03:39:51;6.28;;;5.00;;
49458;SDS011;35354;51.296;16.924;2022-09-01T03:42:16;8.05;;;5.18;;
49458;SDS011;35354;51.296;16.924;2022-09-01T03:44:49;7.20;;;5.30;;
49458;SDS011;35354;51.296;16.924;2022-09-01T03:47:16;7.50;;;5.65;;
49458;SDS011;35354;51.296;16.924;2022-09-01T03:49:42;8.02;;;5.30;;
49458;SDS011;35354;51.296;16.924;2022-09-01T03:52:09;6.47;;;5.00;;
49458;SDS011;35354;51.296;16.924;2022-09-01T03:54:36;9.50;;;5.43;;
49458;SDS011;35354;51.296;16.924;2022-09-01T03:57:01;8.55;;;5.07;;
49458;SDS011;35354;51.296;16.924;2022-09-01T03:59:30;10.38;;;5.00;;
49458;SDS011;35354;51.296;16.924;2022-09-01T04:01:56;9.75;;;5.28;;
49458;SDS011;35354;51.296;16.924;2022-09-01T04:04:22;11.43;;;5.22;;
49458;SDS011;35354;51.296;16.924;2022-09-01T04:06:47;8.70;;;5.50;;
49458;SDS011;35354;51.296;16.924;2022-09-01T04:09:13;6.75;;;5.13;;
49458;SDS011;35354;51.296;16.924;2022-09-01T04:11:39;6.93;;;5.57;;
49458;SDS011;35354;51.296;16.924;2022-09-01T04:14:05;8.77;;;5.43;;
49458;SDS011;35354;51.296;16.924;2022-09-01T04:16:32;8.18;;;5.60;;
49458;SDS011;35354;51.296;16.924;2022-09-01T04:19:18;8.07;;;5.63;;
49458;SDS011;35354;51.296;16.924;2022-09-01T04:21:50;7.57;;;5.13;;
49458;SDS011;35354;51.296;16.924;2022-09-01T04:24:21;12.82;;;5.78;;
49458;SDS011;35354;51.296;16.924;2022-09-01T04:26:49;9.77;;;6.13;;
49458;SDS011;35354;51.296;16.924;2022-09-01T04:29:16;8.48;;;5.03;;
49458;SDS011;35354;51.296;16.924;2022-09-01T04:31:43;8.50;;;5.03;;
49458;SDS011;35354;51.296;16.924;2022-09-01T04:34:09;8.38;;;5.00;;
49458;SDS011;35354;51.296;16.924;2022-09-01T04:36:38;7.55;;;5.38;;
49458;SDS011;35354;51.296;16.924;2022-09-01T04:39:06;8.45;;;5.30;;
49458;SDS011;35354;51.296;16.924;2022-09-01T04:41:34;9.85;;;5.90;;
49458;SDS011;35354;51.296;16.924;2022-09-01T04:44:01;13.73;;;6.75;;
49458;SDS011;35354;51.296;16.924;2022-09-01T04:46:29;13.73;;;7.88;;
49458;SDS011;35354;51.296;16.924;2022-09-01T04:48:57;13.77;;;7.30;;
49458;SDS011;35354;51.296;16.924;2022-09-01T04:51:23;11.45;;;6.75;;
49458;SDS011;35354;51.296;16.924;2022-09-01T04:53:52;10.60;;;6.63;;
49458;SDS011;35354;51.296;16.924;2022-09-01T04:56:22;8.52;;;6.22;;
49458;SDS011;35354;51.296;16.924;2022-09-01T04:58:49;9.85;;;6.40;;
49458;SDS011;35354;51.296;16.924;2022-09-01T05:01:18;8.45;;;6.22;;
49458;SDS011;35354;51.296;16.924;2022-09-01T05:03:45;10.00;;;7.00;;
49458;SDS011;35354;51.296;16.924;2022-09-01T05:06:25;9.00;;;6.35;;
49458;SDS011;35354;51.296;16.924;2022-09-01T05:08:52;8.25;;;6.45;;
49458;SDS011;35354;51.296;16.924;2022-09-01T05:11:17;7.43;;;5.95;;
49458;SDS011;35354;51.296;16.924;2022-09-01T05:13:44;8.57;;;6.15;;
49458;SDS011;35354;51.296;16.924;2022-09-01T05:16:13;12.38;;;6.53;;
49458;SDS011;35354;51.296;16.924;2022-09-01T05:18:41;10.13;;;6.63;;
49458;SDS011;35354;51.296;16.924;2022-09-01T05:21:11;7.95;;;6.15;;
49458;SDS011;35354;51.296;16.924;2022-09-01T05:23:39;10.85;;;6.18;;
49458;SDS011;35354;51.296;16.924;2022-09-01T05:26:05;9.60;;;6.32;;
49458;SDS011;35354;51.296;16.924;2022-09-01T05:28:45;8.80;;;6.00;;
49458;SDS011;35354;51.296;16.924;2022-09-01T05:31:12;9.10;;;6.25;;
49458;SDS011;35354;51.296;16.924;2022-09-01T05:33:38;14.40;;;6.25;;
49458;SDS011;35354;51.296;16.924;2022-09-01T05:36:10;13.00;;;7.00;;
49458;SDS011;35354;51.296;16.924;2022-09-01T05:38:37;12.27;;;7.40;;
49458;SDS011;35354;51.296;16.924;2022-09-01T05:41:05;16.13;;;7.32;;
49458;SDS011;35354;51.296;16.924;2022-09-01T05:43:31;13.00;;;6.10;;
49458;SDS011;35354;51.296;16.924;2022-09-01T05:45:57;10.80;;;6.45;;
49458;SDS011;35354;51.296;16.924;2022-09-01T05:48:25;9.30;;;6.18;;
49458;SDS011;35354;51.296;16.924;2022-09-01T05:50:52;9.10;;;6.13;;
49458;SDS011;35354;51.296;16.924;2022-09-01T05:53:21;9.20;;;6.32;;
49458;SDS011;35354;51.296;16.924;2022-09-01T05:55:49;8.23;;;5.57;;
49458;SDS011;35354;51.296;16.924;2022-09-01T05:58:21;8.02;;;5.90;;
49458;SDS011;35354;51.296;16.924;2022-09-01T06:00:49;9.82;;;5.40;;
49458;SDS011;35354;51.296;16.924;2022-09-01T06:03:16;9.57;;;5.57;;
49458;SDS011;35354;51.296;16.924;2022-09-01T06:05:42;8.75;;;5.47;;
49458;SDS011;35354;51.296;16.924;2022-09-01T06:08:10;6.32;;;4.88;;
49458;SDS011;35354;51.296;16.924;2022-09-01T06:10:38;8.15;;;4.80;;
49458;SDS011;35354;51.296;16.924;2022-09-01T06:13:05;8.13;;;4.57;;
49458;SDS011;35354;51.296;16.924;2022-09-01T06:15:31;6.85;;;5.03;;
49458;SDS011;35354;51.296;16.924;2022-09-01T06:17:58;6.03;;;4.82;;
49458;SDS011;35354;51.296;16.924;2022-09-01T06:20:24;7.32;;;4.65;;
49458;SDS011;35354;51.296;16.924;2022-09-01T06:22:50;6.28;;;4.15;;
49458;SDS011;35354;51.296;16.924;2022-09-01T06:25:16;6.97;;;4.18;;
49458;SDS011;35354;51.296;16.924;2022-09-01T06:27:42;4.85;;;3.95;;
49458;SDS011;35354;51.296;16.924;2022-09-01T06:30:09;5.80;;;4.25;;
49458;SDS011;35354;51.296;16.924;2022-09-01T06:32:43;5.05;;;3.40;;
49458;SDS011;35354;51.296;16.924;2022-09-01T06:35:12;7.18;;;4.15;;
49458;SDS011;35354;51.296;16.924;2022-09-01T06:40:06;12.60;;;4.03;;
49458;SDS011;35354;51.296;16.924;2022-09-01T06:42:41;10.65;;;4.68;;
49458;SDS011;35354;51.296;16.924;2022-09-01T06:45:08;4.28;;;3.33;;
49458;SDS011;35354;51.296;16.924;2022-09-01T06:47:34;5.68;;;3.45;;
49458;SDS011;35354;51.296;16.924;2022-09-01T06:50:00;7.18;;;3.85;;
49458;SDS011;35354;51.296;16.924;2022-09-01T06:52:27;8.48;;;3.92;;
49458;SDS011;35354;51.296;16.924;2022-09-01T06:54:52;5.18;;;3.50;;
49458;SDS011;35354;51.296;16.924;2022-09-01T06:57:18;6.53;;;3.80;;
49458;SDS011;35354;51.296;16.924;2022-09-01T06:59:46;7.40;;;3.78;;
49458;SDS011;35354;51.296;16.924;2022-09-01T07:02:11;5.55;;;3.10;;
49458;SDS011;35354;51.296;16.924;2022-09-01T07:04:40;5.57;;;2.95;;
49458;SDS011;35354;51.296;16.924;2022-09-01T07:07:10;7.28;;;3.53;;
49458;SDS011;35354;51.296;16.924;2022-09-01T07:09:37;5.80;;;3.45;;
49458;SDS011;35354;51.296;16.924;2022-09-01T07:12:04;5.38;;;3.03;;
49458;SDS011;35354;51.296;16.924;2022-09-01T07:14:30;3.78;;;2.70;;
49458;SDS011;35354;51.296;16.924;2022-09-01T07:16:56;7.05;;;3.15;;
49458;SDS011;35354;51.296;16.924;2022-09-01T07:19:22;4.13;;;2.40;;
49458;SDS011;35354;51.296;16.924;2022-09-01T07:21:50;4.80;;;2.58;;
49458;SDS011;35354;51.296;16.924;2022-09-01T07:24:16;5.57;;;2.45;;
49458;SDS011;35354;51.296;16.924;2022-09-01T07:26:42;7.55;;;2.20;;
49458;SDS011;35354;51.296;16.924;2022-09-01T07:29:08;2.55;;;1.95;;
49458;SDS011;35354;51.296;16.924;2022-09-01T07:31:35;8.63;;;2.50;;
49458;SDS011;35354;51.296;16.924;2022-09-01T07:34:07;5.38;;;3.00;;
49458;SDS011;35354;51.296;16.924;2022-09-01T07:36:34;3.08;;;2.33;;
49458;SDS011;35354;51.296;16.924;2022-09-01T07:39:02;3.40;;;2.28;;
49458;SDS011;35354;51.296;16.924;2022-09-01T07:41:28;3.72;;;1.95;;
49458;SDS011;35354;51.296;16.924;2022-09-01T07:43:54;5.00;;;2.35;;
49458;SDS011;35354;51.296;16.924;2022-09-01T07:46:21;3.88;;;2.33;;
49458;SDS011;35354;51.296;16.924;2022-09-01T07:48:48;2.40;;;2.10;;
49458;SDS011;35354;51.296;16.924;2022-09-01T07:51:15;1.90;;;1.70;;
49458;SDS011;35354;51.296;16.924;2022-09-01T07:53:44;4.05;;;2.00;;
49458;SDS011;35354;51.296;16.924;2022-09-01T07:56:15;3.15;;;2.20;;
49458;SDS011;35354;51.296;16.924;2022-09-01T07:58:44;3.92;;;2.10;;
49458;SDS011;35354;51.296;16.924;2022-09-01T08:01:11;3.53;;;2.10;;
49458;SDS011;35354;51.296;16.924;2022-09-01T08:03:42;2.95;;;1.95;;
49458;SDS011;35354;51.296;16.924;2022-09-01T08:06:10;2.90;;;1.80;;
49458;SDS011;35354;51.296;16.924;2022-09-01T08:08:37;2.38;;;1.70;;
49458;SDS011;35354;51.296;16.924;2022-09-01T08:11:03;2.95;;;2.05;;
49458;SDS011;35354;51.296;16.924;2022-09-01T08:13:30;4.68;;;2.30;;
49458;SDS011;35354;51.296;16.924;2022-09-01T08:15:56;3.90;;;1.85;;
49458;SDS011;35354;51.296;16.924;2022-09-01T08:18:21;2.13;;;1.63;;
49458;SDS011;35354;51.296;16.924;2022-09-01T08:20:47;4.03;;;1.77;;
49458;SDS011;35354;51.296;16.924;2022-09-01T08:23:14;2.03;;;1.83;;
49458;SDS011;35354;51.296;16.924;2022-09-01T08:25:43;3.83;;;2.15;;
49458;SDS011;35354;51.296;16.924;2022-09-01T08:28:10;3.20;;;2.03;;
49458;SDS011;35354;51.296;16.924;2022-09-01T08:30:38;3.58;;;1.90;;
49458;SDS011;35354;51.296;16.924;2022-09-01T08:33:06;3.28;;;2.25;;
49458;SDS011;35354;51.296;16.924;2022-09-01T08:35:36;3.55;;;2.30;;
49458;SDS011;35354;51.296;16.924;2022-09-01T08:38:03;3.35;;;2.33;;
49458;SDS011;35354;51.296;16.924;2022-09-01T08:40:28;4.18;;;2.55;;
49458;SDS011;35354;51.296;16.924;2022-09-01T08:45:50;4.57;;;2.77;;
49458;SDS011;35354;51.296;16.924;2022-09-01T08:50:52;5.07;;;2.60;;
49458;SDS011;35354;51.296;16.924;2022-09-01T08:53:28;4.00;;;2.85;;
49458;SDS011;35354;51.296;16.924;2022-09-01T08:55:58;6.30;;;2.75;;
49458;SDS011;35354;51.296;16.924;2022-09-01T08:58:25;4.32;;;2.70;;
49458;SDS011;35354;51.296;16.924;2022-09-01T09:01:07;5.35;;;2.55;;
49458;SDS011;35354;51.296;16.924;2022-09-01T09:09:48;3.28;;;1.83;;
49458;SDS011;35354;51.296;16.924;2022-09-01T09:12:38;2.72;;;1.90;;
49458;SDS011;35354;51.296;16.924;2022-09-01T09:18:21;2.70;;;1.75;;
49458;SDS011;35354;51.296;16.924;2022-09-01T09:20:56;3.90;;;1.60;;
49458;SDS011;35354;51.296;16.924;2022-09-01T09:23:35;5.15;;;1.70;;
49458;SDS011;35354;51.296;16.924;2022-09-01T09:26:06;1.75;;;1.45;;
49458;SDS011;35354;51.296;16.924;2022-09-01T09:28:31;3.08;;;2.28;;
49458;SDS011;35354;51.296;16.924;2022-09-01T09:33:59;8.75;;;3.10;;
49458;SDS011;35354;51.296;16.924;2022-09-01T09:36:42;4.28;;;2.28;;
49458;SDS011;35354;51.296;16.924;2022-09-01T09:39:13;5.50;;;2.72;;
49458;SDS011;35354;51.296;16.924;2022-09-01T09:41:42;5.78;;;2.20;;
49458;SDS011;35354;51.296;16.924;2022-09-01T09:44:25;2.75;;;1.95;;
49458;SDS011;35354;51.296;16.924;2022-09-01T09:46:53;2.05;;;1.83;;
49458;SDS011;35354;51.296;16.924;2022-09-01T09:49:22;6.32;;;2.00;;
49458;SDS011;35354;51.296;16.924;2022-09-01T09:54:25;4.15;;;1.98;;
49458;SDS011;35354;51.296;16.924;2022-09-01T09:59:40;2.03;;;1.77;;
49458;SDS011;35354;51.296;16.924;2022-09-01T10:04:50;3.17;;;1.45;;
49458;SDS011;35354;51.296;16.924;2022-09-01T10:09:48;2.83;;;1.58;;
49458;SDS011;35354;51.296;16.924;2022-09-01T10:12:13;2.28;;;1.30;;
49458;SDS011;35354;51.296;16.924;2022-09-01T10:14:44;2.55;;;1.50;;
49458;SDS011;35354;51.296;16.924;2022-09-01T10:17:18;2.78;;;1.70;;
49458;SDS011;35354;51.296;16.924;2022-09-01T10:19:52;1.73;;;1.30;;
49458;SDS011;35354;51.296;16.924;2022-09-01T10:22:21;2.88;;;1.33;;
49458;SDS011;35354;51.296;16.924;2022-09-01T10:24:48;5.15;;;1.60;;
49458;SDS011;35354;51.296;16.924;2022-09-01T10:29:47;4.72;;;1.25;;
49458;SDS011;35354;51.296;16.924;2022-09-01T10:32:18;1.35;;;1.25;;
49458;SDS011;35354;51.296;16.924;2022-09-01T10:34:48;1.27;;;1.20;;
49458;SDS011;35354;51.296;16.924;2022-09-01T10:37:14;1.48;;;1.38;;
49458;SDS011;35354;51.296;16.924;2022-09-01T10:42:37;1.23;;;1.13;;
49458;SDS011;35354;51.296;16.924;2022-09-01T10:45:06;4.70;;;1.35;;
49458;SDS011;35354;51.296;16.924;2022-09-01T10:47:42;3.95;;;1.33;;
49458;SDS011;35354;51.296;16.924;2022-09-01T10:50:27;7.20;;;1.98;;
49458;SDS011;35354;51.296;16.924;2022-09-01T10:52:57;3.08;;;1.20;;
49458;SDS011;35354;51.296;16.924;2022-09-01T10:55:25;2.15;;;1.80;;
49458;SDS011;35354;51.296;16.924;2022-09-01T11:00:53;1.83;;;1.35;;
49458;SDS011;35354;51.296;16.924;2022-09-01T11:10:54;3.92;;;1.20;;
49458;SDS011;35354;51.296;16.924;2022-09-01T11:16:24;3.03;;;1.90;;
49458;SDS011;35354;51.296;16.924;2022-09-01T11:18:50;2.45;;;1.17;;
49458;SDS011;35354;51.296;16.924;2022-09-01T11:21:22;1.38;;;1.23;;
49458;SDS011;35354;51.296;16.924;2022-09-01T11:24:19;1.67;;;1.30;;
49458;SDS011;35354;51.296;16.924;2022-09-01T11:26:55;3.38;;;1.00;;
49458;SDS011;35354;51.296;16.924;2022-09-01T11:32:19;1.55;;;1.27;;
49458;SDS011;35354;51.296;16.924;2022-09-01T11:34:49;5.32;;;1.73;;
49458;SDS011;35354;51.296;16.924;2022-09-01T11:37:20;3.88;;;1.20;;
49458;SDS011;35354;51.296;16.924;2022-09-01T11:42:18;1.33;;;1.23;;
49458;SDS011;35354;51.296;16.924;2022-09-01T11:50:04;1.45;;;1.10;;
49458;SDS011;35354;51.296;16.924;2022-09-01T11:52:33;1.60;;;1.10;;
49458;SDS011;35354;51.296;16.924;2022-09-01T11:55:02;1.63;;;1.48;;
49458;SDS011;35354;51.296;16.924;2022-09-01T11:57:33;1.67;;;1.25;;
49458;SDS011;35354;51.296;16.924;2022-09-01T12:00:04;2.50;;;1.23;;
49458;SDS011;35354;51.296;16.924;2022-09-01T12:02:35;1.83;;;1.30;;
49458;SDS011;35354;51.296;16.924;2022-09-01T12:05:21;3.10;;;1.50;;
49458;SDS011;35354;51.296;16.924;2022-09-01T12:07:50;5.45;;;1.30;;
49458;SDS011;35354;51.296;16.924;2022-09-01T12:12:59;3.13;;;1.42;;
49458;SDS011;35354;51.296;16.924;2022-09-01T12:15:29;1.52;;;1.40;;
49458;SDS011;35354;51.296;16.924;2022-09-01T12:18:07;2.45;;;1.40;;
49458;SDS011;35354;51.296;16.924;2022-09-01T12:20:43;3.00;;;1.75;;
49458;SDS011;35354;51.296;16.924;2022-09-01T12:23:29;1.58;;;1.30;;
49458;SDS011;35354;51.296;16.924;2022-09-01T12:25:58;2.53;;;1.30;;
49458;SDS011;35354;51.296;16.924;2022-09-01T12:28:33;1.92;;;1.50;;
49458;SDS011;35354;51.296;16.924;2022-09-01T12:30:59;5.07;;;1.45;;
49458;SDS011;35354;51.296;16.924;2022-09-01T12:33:46;2.55;;;1.30;;
49458;SDS011;35354;51.296;16.924;2022-09-01T12:36:20;1.48;;;1.23;;
49458;SDS011;35354;51.296;16.924;2022-09-01T12:38:46;2.75;;;1.50;;
49458;SDS011;35354;51.296;16.924;2022-09-01T12:41:31;4.05;;;1.42;;
49458;SDS011;35354;51.296;16.924;2022-09-01T12:46:55;1.33;;;1.10;;
49458;SDS011;35354;51.296;16.924;2022-09-01T12:49:24;1.67;;;1.10;;
49458;SDS011;35354;51.296;16.924;2022-09-01T12:55:06;2.15;;;1.15;;
49458;SDS011;35354;51.296;16.924;2022-09-01T12:57:39;1.27;;;1.17;;
49458;SDS011;35354;51.296;16.924;2022-09-01T13:02:44;0.98;;;0.98;;
49458;SDS011;35354;51.296;16.924;2022-09-01T13:05:39;4.40;;;1.40;;
49458;SDS011;35354;51.296;16.924;2022-09-01T13:08:27;3.97;;;1.50;;
49458;SDS011;35354;51.296;16.924;2022-09-01T13:13:26;1.23;;;1.13;;
49458;SDS011;35354;51.296;16.924;2022-09-01T13:15:54;1.98;;;1.05;;
49458;SDS011;35354;51.296;16.924;2022-09-01T13:18:28;1.85;;;1.23;;
49458;SDS011;35354;51.296;16.924;2022-09-01T13:20:54;2.38;;;1.13;;
49458;SDS011;35354;51.296;16.924;2022-09-01T13:23:21;2.55;;;1.40;;
49458;SDS011;35354;51.296;16.924;2022-09-01T13:25:47;1.23;;;1.00;;
49458;SDS011;35354;51.296;16.924;2022-09-01T13:28:13;3.50;;;1.50;;
49458;SDS011;35354;51.296;16.924;2022-09-01T13:30:40;1.80;;;1.40;;
49458;SDS011;35354;51.296;16.924;2022-09-01T13:33:08;1.35;;;1.25;;
49458;SDS011;35354;51.296;16.924;2022-09-01T13:35:36;3.47;;;1.38;;
49458;SDS011;35354;51.296;16.924;2022-09-01T13:38:02;2.33;;;1.50;;
49458;SDS011;35354;51.296;16.924;2022-09-01T13:40:27;1.08;;;1.08;;
49458;SDS011;35354;51.296;16.924;2022-09-01T13:42:53;1.88;;;1.33;;
49458;SDS011;35354;51.296;16.924;2022-09-01T13:45:20;1.13;;;1.02;;
49458;SDS011;35354;51.296;16.924;2022-09-01T13:47:49;4.28;;;1.23;;
49458;SDS011;35354;51.296;16.924;2022-09-01T13:50:15;1.63;;;1.40;;
49458;SDS011;35354;51.296;16.924;2022-09-01T13:52:43;1.50;;;1.40;;
49458;SDS011;35354;51.296;16.924;2022-09-01T13:55:15;1.33;;;1.20;;
49458;SDS011;35354;51.296;16.924;2022-09-01T13:57:45;2.03;;;1.30;;
49458;SDS011;35354;51.296;16.924;2022-09-01T14:00:11;1.38;;;1.27;;
49458;SDS011;35354;51.296;16.924;2022-09-01T14:02:40;0.85;;;0.82;;
49458;SDS011;35354;51.296;16.924;2022-09-01T14:05:15;1.75;;;1.30;;
49458;SDS011;35354;51.296;16.924;2022-09-01T14:07:41;4.28;;;1.65;;
49458;SDS011;35354;51.296;16.924;2022-09-01T14:10:07;1.40;;;1.20;;
49458;SDS011;35354;51.296;16.924;2022-09-01T14:12:33;1.45;;;1.35;;
49458;SDS011;35354;51.296;16.924;2022-09-01T14:14:58;2.28;;;1.00;;
49458;SDS011;35354;51.296;16.924;2022-09-01T14:17:24;1.20;;;1.10;;
49458;SDS011;35354;51.296;16.924;2022-09-01T14:19:50;1.10;;;1.00;;
49458;SDS011;35354;51.296;16.924;2022-09-01T14:22:15;4.93;;;1.15;;
49458;SDS011;35354;51.296;16.924;2022-09-01T14:24:41;2.13;;;1.30;;
49458;SDS011;35354;51.296;16.924;2022-09-01T14:27:08;1.10;;;1.00;;
49458;SDS011;35354;51.296;16.924;2022-09-01T14:29:33;1.25;;;1.05;;
49458;SDS011;35354;51.296;16.924;2022-09-01T14:32:00;3.95;;;1.60;;
49458;SDS011;35354;51.296;16.924;2022-09-01T14:34:26;1.40;;;1.30;;
49458;SDS011;35354;51.296;16.924;2022-09-01T14:36:51;2.33;;;1.30;;
49458;SDS011;35354;51.296;16.924;2022-09-01T14:39:22;1.63;;;1.10;;
49458;SDS011;35354;51.296;16.924;2022-09-01T14:41:48;1.90;;;1.27;;
49458;SDS011;35354;51.296;16.924;2022-09-01T14:44:13;1.27;;;1.17;;
49458;SDS011;35354;51.296;16.924;2022-09-01T14:46:38;2.78;;;1.50;;
49458;SDS011;35354;51.296;16.924;2022-09-01T14:49:04;2.58;;;1.27;;
49458;SDS011;35354;51.296;16.924;2022-09-01T14:51:30;1.52;;;0.95;;
49458;SDS011;35354;51.296;16.924;2022-09-01T14:53:57;1.63;;;1.02;;
49458;SDS011;35354;51.296;16.924;2022-09-01T14:56:22;2.35;;;1.17;;
49458;SDS011;35354;51.296;16.924;2022-09-01T14:58:49;1.58;;;1.17;;
49458;SDS011;35354;51.296;16.924;2022-09-01T15:01:15;1.30;;;1.20;;
49458;SDS011;35354;51.296;16.924;2022-09-01T15:03:44;5.32;;;1.45;;
49458;SDS011;35354;51.296;16.924;2022-09-01T15:06:11;0.90;;;0.90;;
49458;SDS011;35354;51.296;16.924;2022-09-01T15:08:38;1.38;;;1.23;;
49458;SDS011;35354;51.296;16.924;2022-09-01T15:11:06;1.55;;;1.17;;
49458;SDS011;35354;51.296;16.924;2022-09-01T15:13:36;1.40;;;1.30;;
49458;SDS011;35354;51.296;16.924;2022-09-01T15:16:02;2.88;;;1.58;;
49458;SDS011;35354;51.296;16.924;2022-09-01T15:18:28;1.38;;;1.27;;
49458;SDS011;35354;51.296;16.924;2022-09-01T15:20:54;2.80;;;1.67;;
49458;SDS011;35354;51.296;16.924;2022-09-01T15:23:20;3.47;;;1.60;;
49458;SDS011;35354;51.296;16.924;2022-09-01T15:25:49;1.67;;;1.58;;
49458;SDS011;35354;51.296;16.924;2022-09-01T15:28:17;2.67;;;2.22;;
49458;SDS011;35354;51.296;16.924;2022-09-01T15:30:42;2.50;;;1.20;;
49458;SDS011;35354;51.296;16.924;2022-09-01T15:33:09;2.22;;;1.40;;
49458;SDS011;35354;51.296;16.924;2022-09-01T15:35:35;1.50;;;1.33;;
49458;SDS011;35354;51.296;16.924;2022-09-01T15:38:01;2.05;;;1.25;;
49458;SDS011;35354;51.296;16.924;2022-09-01T15:40:26;2.38;;;1.30;;
49458;SDS011;35354;51.296;16.924;2022-09-01T15:42:52;2.13;;;1.30;;
49458;SDS011;35354;51.296;16.924;2022-09-01T15:45:19;5.18;;;1.50;;
49458;SDS011;35354;51.296;16.924;2022-09-01T15:47:46;6.10;;;2.00;;
49458;SDS011;35354;51.296;16.924;2022-09-01T15:50:16;13.27;;;3.10;;
49458;SDS011;35354;51.296;16.924;2022-09-01T15:52:48;1.10;;;1.10;;
49458;SDS011;35354;51.296;16.924;2022-09-01T15:55:30;1.85;;;1.10;;
49458;SDS011;35354;51.296;16.924;2022-09-01T15:58:02;1.00;;;0.98;;
49458;SDS011;35354;51.296;16.924;2022-09-01T16:00:27;2.67;;;1.15;;